Quick Links (Output Below):   Max & Min Temps   /   Climate Reports   /   Zone Forecasts
River Forecasts   /   Forestry Forecasts   /   Aviation Forecasts   /   Radars   /   Features

Terminal Aerodrome Forecast (Arkadelphia)

Pick a Site:
Arkadelphia | El Dorado | Fayetteville | Fort Smith | Harrison | Highfill | Hot Springs | Jonesboro
Little Rock | Monticello | Mountain Home | Pine Bluff | Texarkana
 Forecast 

KADF 231136Z 2312/2412 04003KT P6SM SKC
     FM231500 14007KT P6SM SCT250=


 Latest METARs (Observations) 
How to Decode METARs
13Z KADF 231256Z AUTO 04004KT 10SM FEW034 14/11 A3003 RMK AO2
         T01440105 SLP183
         
12Z KADF 231156Z AUTO 00000KT 10SM CLR 12/11 A3001 RMK AO2 53013
         T01220111 10144 20116 SLP175
         
11Z KADF 231056Z AUTO 04003KT 10SM CLR 12/11 A2998 RMK AO2 T01220111
         SLP165
         
10Z KADF 230956Z AUTO 00000KT 10SM CLR 12/12 A2997 RMK AO2 T01220116
         SLP162
         
09Z KADF 230856Z AUTO 00000KT 9SM CLR 13/13 A2997 RMK AO2 51002
         T01270127 SLP162
         
08Z KADF 230756Z AUTO 00000KT 9SM CLR 13/13 A2997 RMK AO2 T01270127
         SLP160
         
07Z KADF 230656Z AUTO 00000KT 10SM CLR 14/13 A2997 RMK AO2 T01380133
         SLP161
         
06Z KADF 230556Z AUTO 00000KT 9SM CLR 14/14 A2997 RMK AO2 51006
         T01440144 10261 20144 SLP160
         
05Z KADF 230456Z AUTO 00000KT 10SM CLR 14/14 A2996 RMK AO2 T01440138
         402770144 SLP160
         
04Z KADF 230356Z AUTO 00000KT 10SM CLR 16/14 A2996 RMK AO2 T01610138
         SLP156
         
***** Today's Observations (Above) *****


Back to Main Page
http://www.srh.noaa.gov/lzk/qfcst.php

USA.gov is the U.S. government's official web portal to all federal, state and local government web resources and services.